sensor_id;sensor_type;location;lat;lon;timestamp;P1;durP1;ratioP1;P2;durP2;ratioP2
70744;SDS011;59284;31.390;34.904;2023-04-08T00:00:15;18.08;;;3.03;;
70744;SDS011;59284;31.390;34.904;2023-04-08T00:02:41;17.60;;;2.83;;
70744;SDS011;59284;31.390;34.904;2023-04-08T00:05:07;21.45;;;2.83;;
70744;SDS011;59284;31.390;34.904;2023-04-08T00:07:33;25.25;;;3.20;;
70744;SDS011;59284;31.390;34.904;2023-04-08T00:10:00;24.77;;;3.30;;
70744;SDS011;59284;31.390;34.904;2023-04-08T00:12:26;24.10;;;2.53;;
70744;SDS011;59284;31.390;34.904;2023-04-08T00:14:51;24.88;;;2.97;;
70744;SDS011;59284;31.390;34.904;2023-04-08T00:17:17;17.13;;;2.30;;
70744;SDS011;59284;31.390;34.904;2023-04-08T00:19:43;19.92;;;2.67;;
70744;SDS011;59284;31.390;34.904;2023-04-08T00:22:09;23.37;;;2.87;;
70744;SDS011;59284;31.390;34.904;2023-04-08T00:24:35;23.33;;;2.47;;
70744;SDS011;59284;31.390;34.904;2023-04-08T00:27:01;21.38;;;3.10;;
70744;SDS011;59284;31.390;34.904;2023-04-08T00:29:27;21.90;;;3.30;;
70744;SDS011;59284;31.390;34.904;2023-04-08T00:31:53;12.80;;;2.13;;
70744;SDS011;59284;31.390;34.904;2023-04-08T00:34:19;17.00;;;3.20;;
70744;SDS011;59284;31.390;34.904;2023-04-08T00:36:45;17.65;;;2.65;;
70744;SDS011;59284;31.390;34.904;2023-04-08T00:39:13;15.73;;;3.00;;
70744;SDS011;59284;31.390;34.904;2023-04-08T00:41:39;15.73;;;2.57;;
70744;SDS011;59284;31.390;34.904;2023-04-08T00:44:05;20.10;;;2.72;;
70744;SDS011;59284;31.390;34.904;2023-04-08T00:46:32;10.20;;;2.13;;
70744;SDS011;59284;31.390;34.904;2023-04-08T00:49:01;13.80;;;2.65;;
70744;SDS011;59284;31.390;34.904;2023-04-08T00:51:27;20.65;;;2.83;;
70744;SDS011;59284;31.390;34.904;2023-04-08T00:53:55;13.32;;;2.35;;
70744;SDS011;59284;31.390;34.904;2023-04-08T00:56:21;16.52;;;2.25;;
70744;SDS011;59284;31.390;34.904;2023-04-08T00:58:48;17.17;;;2.90;;
70744;SDS011;59284;31.390;34.904;2023-04-08T01:01:39;16.58;;;2.42;;
70744;SDS011;59284;31.390;34.904;2023-04-08T01:04:08;22.23;;;2.15;;
70744;SDS011;59284;31.390;34.904;2023-04-08T01:06:43;19.73;;;2.78;;
70744;SDS011;59284;31.390;34.904;2023-04-08T01:09:15;15.90;;;2.65;;
70744;SDS011;59284;31.390;34.904;2023-04-08T01:11:43;18.00;;;2.87;;
70744;SDS011;59284;31.390;34.904;2023-04-08T01:14:11;22.45;;;3.05;;
70744;SDS011;59284;31.390;34.904;2023-04-08T01:16:41;18.35;;;2.65;;
70744;SDS011;59284;31.390;34.904;2023-04-08T01:19:09;14.70;;;2.78;;
70744;SDS011;59284;31.390;34.904;2023-04-08T01:21:42;16.75;;;2.58;;
70744;SDS011;59284;31.390;34.904;2023-04-08T01:24:10;22.17;;;3.30;;
70744;SDS011;59284;31.390;34.904;2023-04-08T01:26:42;23.55;;;2.90;;
70744;SDS011;59284;31.390;34.904;2023-04-08T01:29:08;15.77;;;3.22;;
70744;SDS011;59284;31.390;34.904;2023-04-08T01:31:35;17.63;;;3.30;;
70744;SDS011;59284;31.390;34.904;2023-04-08T01:34:01;15.00;;;3.33;;
70744;SDS011;59284;31.390;34.904;2023-04-08T01:36:28;22.10;;;2.70;;
70744;SDS011;59284;31.390;34.904;2023-04-08T01:38:56;15.98;;;2.72;;
70744;SDS011;59284;31.390;34.904;2023-04-08T01:41:25;19.95;;;3.30;;
70744;SDS011;59284;31.390;34.904;2023-04-08T01:43:50;15.30;;;3.63;;
70744;SDS011;59284;31.390;34.904;2023-04-08T01:46:17;28.23;;;3.67;;
70744;SDS011;59284;31.390;34.904;2023-04-08T01:48:43;16.20;;;3.38;;
70744;SDS011;59284;31.390;34.904;2023-04-08T01:51:10;26.42;;;3.13;;
70744;SDS011;59284;31.390;34.904;2023-04-08T01:53:36;20.17;;;3.42;;
70744;SDS011;59284;31.390;34.904;2023-04-08T01:56:05;24.50;;;3.30;;
70744;SDS011;59284;31.390;34.904;2023-04-08T01:58:37;22.10;;;3.13;;
70744;SDS011;59284;31.390;34.904;2023-04-08T02:01:05;18.95;;;3.03;;
70744;SDS011;59284;31.390;34.904;2023-04-08T02:03:35;20.38;;;2.92;;
70744;SDS011;59284;31.390;34.904;2023-04-08T02:06:01;19.52;;;3.83;;
70744;SDS011;59284;31.390;34.904;2023-04-08T02:08:27;27.17;;;3.73;;
70744;SDS011;59284;31.390;34.904;2023-04-08T02:10:53;15.27;;;3.15;;
70744;SDS011;59284;31.390;34.904;2023-04-08T02:13:18;20.53;;;2.97;;
70744;SDS011;59284;31.390;34.904;2023-04-08T02:15:46;18.95;;;3.47;;
70744;SDS011;59284;31.390;34.904;2023-04-08T02:18:21;22.27;;;2.92;;
70744;SDS011;59284;31.390;34.904;2023-04-08T02:21:08;22.20;;;2.77;;
70744;SDS011;59284;31.390;34.904;2023-04-08T02:23:37;23.67;;;3.10;;
70744;SDS011;59284;31.390;34.904;2023-04-08T02:26:04;19.25;;;2.67;;
70744;SDS011;59284;31.390;34.904;2023-04-08T02:28:33;21.25;;;3.45;;
70744;SDS011;59284;31.390;34.904;2023-04-08T02:30:59;22.45;;;3.28;;
70744;SDS011;59284;31.390;34.904;2023-04-08T02:33:27;14.40;;;2.57;;
70744;SDS011;59284;31.390;34.904;2023-04-08T02:35:52;17.65;;;3.00;;
70744;SDS011;59284;31.390;34.904;2023-04-08T02:38:19;21.58;;;3.22;;
70744;SDS011;59284;31.390;34.904;2023-04-08T02:40:45;20.25;;;2.78;;
70744;SDS011;59284;31.390;34.904;2023-04-08T02:43:14;33.17;;;3.90;;
70744;SDS011;59284;31.390;34.904;2023-04-08T02:45:40;25.38;;;3.85;;
70744;SDS011;59284;31.390;34.904;2023-04-08T02:48:06;18.65;;;3.10;;
70744;SDS011;59284;31.390;34.904;2023-04-08T02:50:32;24.13;;;2.57;;
70744;SDS011;59284;31.390;34.904;2023-04-08T02:52:58;25.83;;;3.95;;
70744;SDS011;59284;31.390;34.904;2023-04-08T02:55:23;14.40;;;3.73;;
70744;SDS011;59284;31.390;34.904;2023-04-08T02:57:49;15.65;;;3.00;;
70744;SDS011;59284;31.390;34.904;2023-04-08T03:00:15;15.27;;;3.17;;
70744;SDS011;59284;31.390;34.904;2023-04-08T03:02:41;25.33;;;4.10;;
70744;SDS011;59284;31.390;34.904;2023-04-08T03:05:07;20.58;;;3.45;;
70744;SDS011;59284;31.390;34.904;2023-04-08T03:07:33;11.07;;;2.58;;
70744;SDS011;59284;31.390;34.904;2023-04-08T03:09:59;14.57;;;4.07;;
70744;SDS011;59284;31.390;34.904;2023-04-08T03:12:25;5.30;;;2.17;;
70744;SDS011;59284;31.390;34.904;2023-04-08T03:14:52;18.90;;;1.80;;
70744;SDS011;59284;31.390;34.904;2023-04-08T03:17:18;18.80;;;2.92;;
70744;SDS011;59284;31.390;34.904;2023-04-08T03:19:44;18.97;;;3.50;;
70744;SDS011;59284;31.390;34.904;2023-04-08T03:22:12;17.67;;;3.80;;
70744;SDS011;59284;31.390;34.904;2023-04-08T03:24:38;27.92;;;3.88;;
70744;SDS011;59284;31.390;34.904;2023-04-08T03:27:03;20.90;;;3.53;;
70744;SDS011;59284;31.390;34.904;2023-04-08T03:29:29;18.35;;;3.72;;
70744;SDS011;59284;31.390;34.904;2023-04-08T03:31:55;17.25;;;4.18;;
70744;SDS011;59284;31.390;34.904;2023-04-08T03:34:21;21.40;;;3.57;;
70744;SDS011;59284;31.390;34.904;2023-04-08T03:36:46;24.90;;;3.88;;
70744;SDS011;59284;31.390;34.904;2023-04-08T03:39:12;30.77;;;5.20;;
70744;SDS011;59284;31.390;34.904;2023-04-08T03:41:38;25.23;;;3.85;;
70744;SDS011;59284;31.390;34.904;2023-04-08T03:44:04;23.80;;;4.57;;
70744;SDS011;59284;31.390;34.904;2023-04-08T03:46:29;20.05;;;3.70;;
70744;SDS011;59284;31.390;34.904;2023-04-08T03:48:55;12.97;;;2.90;;
70744;SDS011;59284;31.390;34.904;2023-04-08T03:51:21;29.88;;;3.95;;
70744;SDS011;59284;31.390;34.904;2023-04-08T03:53:46;22.47;;;3.53;;
70744;SDS011;59284;31.390;34.904;2023-04-08T03:56:13;29.02;;;4.53;;
70744;SDS011;59284;31.390;34.904;2023-04-08T03:58:39;23.67;;;3.72;;
70744;SDS011;59284;31.390;34.904;2023-04-08T04:01:05;31.55;;;4.75;;
70744;SDS011;59284;31.390;34.904;2023-04-08T04:03:31;29.60;;;4.60;;
70744;SDS011;59284;31.390;34.904;2023-04-08T04:05:57;30.48;;;3.80;;
70744;SDS011;59284;31.390;34.904;2023-04-08T04:08:22;20.17;;;3.70;;
70744;SDS011;59284;31.390;34.904;2023-04-08T04:10:48;20.75;;;3.70;;
70744;SDS011;59284;31.390;34.904;2023-04-08T04:13:14;23.73;;;4.23;;
70744;SDS011;59284;31.390;34.904;2023-04-08T04:15:40;30.92;;;3.95;;
70744;SDS011;59284;31.390;34.904;2023-04-08T04:18:06;31.83;;;3.90;;
70744;SDS011;59284;31.390;34.904;2023-04-08T04:20:32;27.35;;;3.53;;
70744;SDS011;59284;31.390;34.904;2023-04-08T04:22:58;21.00;;;3.87;;
70744;SDS011;59284;31.390;34.904;2023-04-08T04:25:23;20.45;;;3.90;;
70744;SDS011;59284;31.390;34.904;2023-04-08T04:27:49;19.57;;;3.70;;
70744;SDS011;59284;31.390;34.904;2023-04-08T04:30:15;23.30;;;3.83;;
70744;SDS011;59284;31.390;34.904;2023-04-08T04:32:41;26.87;;;3.97;;
70744;SDS011;59284;31.390;34.904;2023-04-08T04:35:08;29.30;;;4.85;;
70744;SDS011;59284;31.390;34.904;2023-04-08T04:37:34;21.25;;;3.92;;
70744;SDS011;59284;31.390;34.904;2023-04-08T04:40:01;17.02;;;4.38;;
70744;SDS011;59284;31.390;34.904;2023-04-08T04:42:27;25.80;;;4.27;;
70744;SDS011;59284;31.390;34.904;2023-04-08T04:44:53;24.98;;;4.15;;
70744;SDS011;59284;31.390;34.904;2023-04-08T04:47:18;18.85;;;5.38;;
70744;SDS011;59284;31.390;34.904;2023-04-08T04:49:44;30.27;;;5.40;;
70744;SDS011;59284;31.390;34.904;2023-04-08T04:52:10;25.30;;;4.63;;
70744;SDS011;59284;31.390;34.904;2023-04-08T04:54:36;31.93;;;4.77;;
70744;SDS011;59284;31.390;34.904;2023-04-08T04:57:02;20.90;;;4.57;;
70744;SDS011;59284;31.390;34.904;2023-04-08T04:59:27;26.23;;;4.78;;
70744;SDS011;59284;31.390;34.904;2023-04-08T05:01:53;27.07;;;4.60;;
70744;SDS011;59284;31.390;34.904;2023-04-08T05:04:22;19.70;;;4.90;;
70744;SDS011;59284;31.390;34.904;2023-04-08T05:06:48;29.20;;;4.68;;
70744;SDS011;59284;31.390;34.904;2023-04-08T05:09:14;31.10;;;4.53;;
70744;SDS011;59284;31.390;34.904;2023-04-08T05:11:40;28.50;;;4.40;;
70744;SDS011;59284;31.390;34.904;2023-04-08T05:14:05;26.63;;;4.05;;
70744;SDS011;59284;31.390;34.904;2023-04-08T05:16:32;28.73;;;4.30;;
70744;SDS011;59284;31.390;34.904;2023-04-08T05:18:58;30.73;;;4.03;;
70744;SDS011;59284;31.390;34.904;2023-04-08T05:21:23;21.27;;;3.80;;
70744;SDS011;59284;31.390;34.904;2023-04-08T05:23:50;24.15;;;3.95;;
70744;SDS011;59284;31.390;34.904;2023-04-08T05:26:18;24.33;;;4.20;;
70744;SDS011;59284;31.390;34.904;2023-04-08T05:28:46;29.38;;;4.60;;
70744;SDS011;59284;31.390;34.904;2023-04-08T05:31:16;26.15;;;4.25;;
70744;SDS011;59284;31.390;34.904;2023-04-08T05:33:43;27.98;;;4.75;;
70744;SDS011;59284;31.390;34.904;2023-04-08T05:36:09;26.88;;;4.22;;
70744;SDS011;59284;31.390;34.904;2023-04-08T05:38:36;29.97;;;4.97;;
70744;SDS011;59284;31.390;34.904;2023-04-08T05:41:02;31.13;;;4.78;;
70744;SDS011;59284;31.390;34.904;2023-04-08T05:43:27;19.60;;;4.00;;
70744;SDS011;59284;31.390;34.904;2023-04-08T05:45:53;36.70;;;5.38;;
70744;SDS011;59284;31.390;34.904;2023-04-08T05:48:19;24.83;;;4.23;;
70744;SDS011;59284;31.390;34.904;2023-04-08T05:50:45;33.72;;;4.38;;
70744;SDS011;59284;31.390;34.904;2023-04-08T05:53:12;22.13;;;4.55;;
70744;SDS011;59284;31.390;34.904;2023-04-08T05:55:39;31.47;;;4.47;;
70744;SDS011;59284;31.390;34.904;2023-04-08T05:58:05;24.42;;;3.95;;
70744;SDS011;59284;31.390;34.904;2023-04-08T06:00:31;21.65;;;4.00;;
70744;SDS011;59284;31.390;34.904;2023-04-08T06:02:56;26.50;;;4.20;;
70744;SDS011;59284;31.390;34.904;2023-04-08T06:05:22;31.07;;;4.90;;
70744;SDS011;59284;31.390;34.904;2023-04-08T06:07:48;29.08;;;4.97;;
70744;SDS011;59284;31.390;34.904;2023-04-08T06:10:14;29.73;;;5.43;;
70744;SDS011;59284;31.390;34.904;2023-04-08T06:12:40;26.52;;;4.70;;
70744;SDS011;59284;31.390;34.904;2023-04-08T06:15:06;27.65;;;4.75;;
70744;SDS011;59284;31.390;34.904;2023-04-08T06:17:34;32.50;;;5.50;;
70744;SDS011;59284;31.390;34.904;2023-04-08T06:20:01;20.33;;;5.30;;
70744;SDS011;59284;31.390;34.904;2023-04-08T06:22:27;26.05;;;4.47;;
70744;SDS011;59284;31.390;34.904;2023-04-08T06:24:53;18.88;;;4.10;;
70744;SDS011;59284;31.390;34.904;2023-04-08T06:27:19;20.63;;;3.97;;
70744;SDS011;59284;31.390;34.904;2023-04-08T06:29:45;28.33;;;4.30;;
70744;SDS011;59284;31.390;34.904;2023-04-08T06:32:11;32.65;;;4.43;;
70744;SDS011;59284;31.390;34.904;2023-04-08T06:34:38;23.95;;;4.15;;
70744;SDS011;59284;31.390;34.904;2023-04-08T06:37:05;24.50;;;3.42;;
70744;SDS011;59284;31.390;34.904;2023-04-08T06:39:31;20.70;;;2.97;;
70744;SDS011;59284;31.390;34.904;2023-04-08T06:41:57;16.30;;;3.08;;
70744;SDS011;59284;31.390;34.904;2023-04-08T06:44:23;14.50;;;2.78;;
70744;SDS011;59284;31.390;34.904;2023-04-08T06:46:49;21.00;;;4.13;;
70744;SDS011;59284;31.390;34.904;2023-04-08T06:49:15;18.77;;;3.47;;
70744;SDS011;59284;31.390;34.904;2023-04-08T06:51:41;21.67;;;3.72;;
70744;SDS011;59284;31.390;34.904;2023-04-08T06:54:06;22.83;;;4.13;;
70744;SDS011;59284;31.390;34.904;2023-04-08T06:56:34;20.05;;;3.55;;
70744;SDS011;59284;31.390;34.904;2023-04-08T06:59:00;15.15;;;3.67;;
70744;SDS011;59284;31.390;34.904;2023-04-08T07:01:27;21.73;;;3.63;;
70744;SDS011;59284;31.390;34.904;2023-04-08T07:03:53;14.70;;;3.10;;
70744;SDS011;59284;31.390;34.904;2023-04-08T07:06:18;32.25;;;3.83;;
70744;SDS011;59284;31.390;34.904;2023-04-08T07:08:44;17.67;;;3.25;;
70744;SDS011;59284;31.390;34.904;2023-04-08T07:11:10;18.27;;;3.40;;
70744;SDS011;59284;31.390;34.904;2023-04-08T07:13:36;16.27;;;2.97;;
70744;SDS011;59284;31.390;34.904;2023-04-08T07:16:02;17.63;;;2.78;;
70744;SDS011;59284;31.390;34.904;2023-04-08T07:18:28;20.40;;;3.58;;
70744;SDS011;59284;31.390;34.904;2023-04-08T07:20:54;22.27;;;2.67;;
70744;SDS011;59284;31.390;34.904;2023-04-08T07:23:22;16.13;;;3.72;;
70744;SDS011;59284;31.390;34.904;2023-04-08T07:25:48;20.88;;;3.85;;
70744;SDS011;59284;31.390;34.904;2023-04-08T07:28:14;15.88;;;3.38;;
70744;SDS011;59284;31.390;34.904;2023-04-08T07:30:39;20.03;;;2.90;;
70744;SDS011;59284;31.390;34.904;2023-04-08T07:33:05;15.90;;;3.25;;
70744;SDS011;59284;31.390;34.904;2023-04-08T07:35:32;25.83;;;3.43;;
70744;SDS011;59284;31.390;34.904;2023-04-08T07:37:58;17.80;;;3.33;;
70744;SDS011;59284;31.390;34.904;2023-04-08T07:40:24;25.88;;;3.40;;
70744;SDS011;59284;31.390;34.904;2023-04-08T07:42:50;22.52;;;3.67;;
70744;SDS011;59284;31.390;34.904;2023-04-08T07:45:17;25.05;;;3.72;;
70744;SDS011;59284;31.390;34.904;2023-04-08T07:47:43;22.43;;;3.57;;
70744;SDS011;59284;31.390;34.904;2023-04-08T07:50:09;23.23;;;3.70;;
70744;SDS011;59284;31.390;34.904;2023-04-08T07:52:35;21.95;;;3.28;;
70744;SDS011;59284;31.390;34.904;2023-04-08T07:55:00;26.70;;;3.70;;
70744;SDS011;59284;31.390;34.904;2023-04-08T07:57:26;25.38;;;3.85;;
70744;SDS011;59284;31.390;34.904;2023-04-08T07:59:52;30.23;;;4.40;;
70744;SDS011;59284;31.390;34.904;2023-04-08T08:02:17;26.92;;;3.88;;
70744;SDS011;59284;31.390;34.904;2023-04-08T08:04:43;23.80;;;3.53;;
70744;SDS011;59284;31.390;34.904;2023-04-08T08:07:09;26.65;;;4.32;;
70744;SDS011;59284;31.390;34.904;2023-04-08T08:09:35;27.63;;;3.40;;
70744;SDS011;59284;31.390;34.904;2023-04-08T08:12:00;27.88;;;3.90;;
70744;SDS011;59284;31.390;34.904;2023-04-08T08:14:26;24.77;;;3.70;;
70744;SDS011;59284;31.390;34.904;2023-04-08T08:16:53;26.88;;;4.15;;
70744;SDS011;59284;31.390;34.904;2023-04-08T08:19:19;27.77;;;4.13;;
70744;SDS011;59284;31.390;34.904;2023-04-08T08:21:45;12.83;;;2.10;;
70744;SDS011;59284;31.390;34.904;2023-04-08T08:24:11;24.25;;;3.33;;
70744;SDS011;59284;31.390;34.904;2023-04-08T08:26:37;22.60;;;3.23;;
70744;SDS011;59284;31.390;34.904;2023-04-08T08:29:03;17.10;;;4.00;;
70744;SDS011;59284;31.390;34.904;2023-04-08T08:31:29;27.05;;;3.80;;
70744;SDS011;59284;31.390;34.904;2023-04-08T08:33:55;21.90;;;3.40;;
70744;SDS011;59284;31.390;34.904;2023-04-08T08:36:21;21.17;;;2.92;;
70744;SDS011;59284;31.390;34.904;2023-04-08T08:38:46;28.10;;;4.80;;
70744;SDS011;59284;31.390;34.904;2023-04-08T08:41:12;19.05;;;3.45;;
70744;SDS011;59284;31.390;34.904;2023-04-08T08:43:39;19.98;;;3.45;;
70744;SDS011;59284;31.390;34.904;2023-04-08T08:46:07;25.43;;;3.50;;
70744;SDS011;59284;31.390;34.904;2023-04-08T08:48:35;21.02;;;3.72;;
70744;SDS011;59284;31.390;34.904;2023-04-08T08:51:07;16.33;;;3.00;;
70744;SDS011;59284;31.390;34.904;2023-04-08T08:53:36;20.88;;;3.25;;
70744;SDS011;59284;31.390;34.904;2023-04-08T08:56:02;23.90;;;4.40;;
70744;SDS011;59284;31.390;34.904;2023-04-08T08:58:28;21.77;;;3.28;;
70744;SDS011;59284;31.390;34.904;2023-04-08T09:00:54;24.33;;;3.20;;
70744;SDS011;59284;31.390;34.904;2023-04-08T09:03:21;21.73;;;3.60;;
70744;SDS011;59284;31.390;34.904;2023-04-08T09:05:55;16.10;;;3.40;;
70744;SDS011;59284;31.390;34.904;2023-04-08T09:08:23;31.13;;;3.30;;
70744;SDS011;59284;31.390;34.904;2023-04-08T09:10:49;28.23;;;3.90;;
70744;SDS011;59284;31.390;34.904;2023-04-08T09:13:15;26.10;;;4.00;;
70744;SDS011;59284;31.390;34.904;2023-04-08T09:16:02;18.38;;;2.55;;
70744;SDS011;59284;31.390;34.904;2023-04-08T09:18:30;19.13;;;3.00;;
70744;SDS011;59284;31.390;34.904;2023-04-08T09:21:00;18.55;;;3.55;;
70744;SDS011;59284;31.390;34.904;2023-04-08T09:23:46;16.63;;;3.08;;
70744;SDS011;59284;31.390;34.904;2023-04-08T09:26:14;24.25;;;2.88;;
70744;SDS011;59284;31.390;34.904;2023-04-08T09:28:56;20.25;;;3.58;;
70744;SDS011;59284;31.390;34.904;2023-04-08T09:31:26;24.17;;;4.07;;
70744;SDS011;59284;31.390;34.904;2023-04-08T09:33:55;19.65;;;3.40;;
70744;SDS011;59284;31.390;34.904;2023-04-08T09:36:35;16.95;;;2.70;;
70744;SDS011;59284;31.390;34.904;2023-04-08T09:39:00;24.02;;;3.17;;
70744;SDS011;59284;31.390;34.904;2023-04-08T09:41:26;19.40;;;4.47;;
70744;SDS011;59284;31.390;34.904;2023-04-08T09:43:53;21.30;;;3.50;;
70744;SDS011;59284;31.390;34.904;2023-04-08T09:52:01;21.03;;;4.80;;
70744;SDS011;59284;31.390;34.904;2023-04-08T09:54:37;27.00;;;3.97;;
70744;SDS011;59284;31.390;34.904;2023-04-08T09:57:24;24.52;;;5.10;;
70744;SDS011;59284;31.390;34.904;2023-04-08T10:00:31;25.20;;;4.20;;
70744;SDS011;59284;31.390;34.904;2023-04-08T10:05:46;25.97;;;4.53;;
70744;SDS011;59284;31.390;34.904;2023-04-08T10:08:11;17.77;;;4.15;;
70744;SDS011;59284;31.390;34.904;2023-04-08T10:10:38;20.08;;;3.92;;
70744;SDS011;59284;31.390;34.904;2023-04-08T10:13:04;24.80;;;4.80;;
70744;SDS011;59284;31.390;34.904;2023-04-08T10:15:31;24.75;;;3.85;;
70744;SDS011;59284;31.390;34.904;2023-04-08T10:23:01;24.30;;;3.65;;
70744;SDS011;59284;31.390;34.904;2023-04-08T10:25:38;19.70;;;3.37;;
70744;SDS011;59284;31.390;34.904;2023-04-08T10:30:46;26.35;;;4.43;;
70744;SDS011;59284;31.390;34.904;2023-04-08T10:33:12;31.88;;;5.13;;
70744;SDS011;59284;31.390;34.904;2023-04-08T10:35:41;32.78;;;4.18;;
70744;SDS011;59284;31.390;34.904;2023-04-08T10:38:10;26.83;;;3.57;;
70744;SDS011;59284;31.390;34.904;2023-04-08T10:40:38;30.50;;;4.95;;
70744;SDS011;59284;31.390;34.904;2023-04-08T10:43:05;22.58;;;4.65;;
70744;SDS011;59284;31.390;34.904;2023-04-08T10:45:31;28.27;;;4.70;;
70744;SDS011;59284;31.390;34.904;2023-04-08T10:48:10;26.13;;;4.70;;
70744;SDS011;59284;31.390;34.904;2023-04-08T10:50:42;25.50;;;4.20;;
70744;SDS011;59284;31.390;34.904;2023-04-08T10:53:09;22.83;;;4.32;;
70744;SDS011;59284;31.390;34.904;2023-04-08T10:55:35;27.20;;;4.68;;
70744;SDS011;59284;31.390;34.904;2023-04-08T10:58:04;18.67;;;3.85;;
70744;SDS011;59284;31.390;34.904;2023-04-08T11:00:32;26.60;;;4.97;;
70744;SDS011;59284;31.390;34.904;2023-04-08T11:03:10;27.33;;;4.83;;
70744;SDS011;59284;31.390;34.904;2023-04-08T11:05:36;23.70;;;4.00;;
70744;SDS011;59284;31.390;34.904;2023-04-08T11:08:03;25.05;;;4.05;;
70744;SDS011;59284;31.390;34.904;2023-04-08T11:10:30;28.58;;;4.70;;
70744;SDS011;59284;31.390;34.904;2023-04-08T11:12:58;27.25;;;4.30;;
70744;SDS011;59284;31.390;34.904;2023-04-08T11:15:23;26.67;;;4.67;;
70744;SDS011;59284;31.390;34.904;2023-04-08T11:17:50;24.48;;;4.05;;
70744;SDS011;59284;31.390;34.904;2023-04-08T11:20:16;25.10;;;4.65;;
70744;SDS011;59284;31.390;34.904;2023-04-08T11:22:42;31.75;;;3.72;;
70744;SDS011;59284;31.390;34.904;2023-04-08T11:25:09;30.40;;;4.27;;
70744;SDS011;59284;31.390;34.904;2023-04-08T11:27:36;24.15;;;4.38;;
70744;SDS011;59284;31.390;34.904;2023-04-08T11:30:02;22.55;;;4.55;;
70744;SDS011;59284;31.390;34.904;2023-04-08T11:32:29;22.15;;;4.50;;
70744;SDS011;59284;31.390;34.904;2023-04-08T11:34:55;32.47;;;4.80;;
70744;SDS011;59284;31.390;34.904;2023-04-08T11:37:24;23.17;;;3.88;;
70744;SDS011;59284;31.390;34.904;2023-04-08T11:39:50;18.88;;;4.30;;
70744;SDS011;59284;31.390;34.904;2023-04-08T11:42:29;28.25;;;3.55;;
70744;SDS011;59284;31.390;34.904;2023-04-08T11:44:56;18.98;;;3.72;;
70744;SDS011;59284;31.390;34.904;2023-04-08T11:47:29;21.27;;;3.10;;
70744;SDS011;59284;31.390;34.904;2023-04-08T11:49:56;29.15;;;4.93;;
70744;SDS011;59284;31.390;34.904;2023-04-08T11:52:22;22.23;;;3.70;;
70744;SDS011;59284;31.390;34.904;2023-04-08T11:54:48;22.88;;;3.65;;
70744;SDS011;59284;31.390;34.904;2023-04-08T11:57:13;21.47;;;4.07;;
70744;SDS011;59284;31.390;34.904;2023-04-08T11:59:40;22.73;;;3.38;;
70744;SDS011;59284;31.390;34.904;2023-04-08T12:02:06;29.20;;;4.27;;
70744;SDS011;59284;31.390;34.904;2023-04-08T12:04:32;29.60;;;4.43;;
70744;SDS011;59284;31.390;34.904;2023-04-08T12:06:58;27.17;;;4.10;;
70744;SDS011;59284;31.390;34.904;2023-04-08T12:09:23;22.83;;;4.07;;
70744;SDS011;59284;31.390;34.904;2023-04-08T12:11:49;23.20;;;4.47;;
70744;SDS011;59284;31.390;34.904;2023-04-08T12:14:15;23.60;;;3.73;;
70744;SDS011;59284;31.390;34.904;2023-04-08T12:16:41;21.48;;;3.60;;
70744;SDS011;59284;31.390;34.904;2023-04-08T12:19:06;21.37;;;4.83;;
70744;SDS011;59284;31.390;34.904;2023-04-08T12:21:32;20.70;;;3.10;;
70744;SDS011;59284;31.390;34.904;2023-04-08T12:23:58;28.20;;;3.55;;
70744;SDS011;59284;31.390;34.904;2023-04-08T12:26:24;18.67;;;3.70;;
70744;SDS011;59284;31.390;34.904;2023-04-08T12:28:51;24.58;;;3.55;;
70744;SDS011;59284;31.390;34.904;2023-04-08T12:31:17;29.27;;;4.32;;
70744;SDS011;59284;31.390;34.904;2023-04-08T12:33:42;19.50;;;3.67;;
70744;SDS011;59284;31.390;34.904;2023-04-08T12:36:08;28.85;;;4.15;;
70744;SDS011;59284;31.390;34.904;2023-04-08T12:38:34;27.47;;;3.73;;
70744;SDS011;59284;31.390;34.904;2023-04-08T12:40:59;19.38;;;3.38;;
70744;SDS011;59284;31.390;34.904;2023-04-08T12:43:25;29.45;;;3.50;;
70744;SDS011;59284;31.390;34.904;2023-04-08T12:45:51;21.20;;;4.63;;
70744;SDS011;59284;31.390;34.904;2023-04-08T12:48:17;26.23;;;3.78;;
70744;SDS011;59284;31.390;34.904;2023-04-08T12:50:43;20.60;;;4.25;;
70744;SDS011;59284;31.390;34.904;2023-04-08T12:53:09;16.70;;;3.87;;
70744;SDS011;59284;31.390;34.904;2023-04-08T12:55:35;28.00;;;4.32;;
70744;SDS011;59284;31.390;34.904;2023-04-08T12:58:01;29.42;;;4.78;;
70744;SDS011;59284;31.390;34.904;2023-04-08T13:00:26;22.30;;;4.93;;
70744;SDS011;59284;31.390;34.904;2023-04-08T13:02:52;18.65;;;3.63;;
70744;SDS011;59284;31.390;34.904;2023-04-08T13:05:18;22.43;;;3.53;;
70744;SDS011;59284;31.390;34.904;2023-04-08T13:07:44;21.98;;;3.67;;
70744;SDS011;59284;31.390;34.904;2023-04-08T13:10:10;25.23;;;4.75;;
70744;SDS011;59284;31.390;34.904;2023-04-08T13:12:36;27.90;;;3.93;;
70744;SDS011;59284;31.390;34.904;2023-04-08T13:15:04;28.25;;;4.65;;
70744;SDS011;59284;31.390;34.904;2023-04-08T13:17:31;29.00;;;4.13;;
70744;SDS011;59284;31.390;34.904;2023-04-08T13:19:57;24.40;;;4.30;;
70744;SDS011;59284;31.390;34.904;2023-04-08T13:22:22;27.30;;;4.63;;
70744;SDS011;59284;31.390;34.904;2023-04-08T13:24:48;16.45;;;3.90;;
70744;SDS011;59284;31.390;34.904;2023-04-08T13:27:14;21.50;;;3.60;;
70744;SDS011;59284;31.390;34.904;2023-04-08T13:29:39;35.28;;;3.72;;
70744;SDS011;59284;31.390;34.904;2023-04-08T13:32:05;21.33;;;3.73;;
70744;SDS011;59284;31.390;34.904;2023-04-08T13:34:31;28.42;;;4.60;;
70744;SDS011;59284;31.390;34.904;2023-04-08T13:36:56;22.60;;;3.97;;
70744;SDS011;59284;31.390;34.904;2023-04-08T13:39:22;21.63;;;3.78;;
70744;SDS011;59284;31.390;34.904;2023-04-08T13:41:48;24.60;;;3.67;;
70744;SDS011;59284;31.390;34.904;2023-04-08T13:44:14;24.63;;;4.25;;
70744;SDS011;59284;31.390;34.904;2023-04-08T13:46:41;22.35;;;3.92;;
70744;SDS011;59284;31.390;34.904;2023-04-08T13:49:06;23.67;;;4.13;;
70744;SDS011;59284;31.390;34.904;2023-04-08T13:51:33;28.98;;;3.67;;
70744;SDS011;59284;31.390;34.904;2023-04-08T13:53:59;29.63;;;3.67;;
70744;SDS011;59284;31.390;34.904;2023-04-08T13:56:25;24.17;;;3.90;;
70744;SDS011;59284;31.390;34.904;2023-04-08T13:58:51;21.00;;;4.00;;
70744;SDS011;59284;31.390;34.904;2023-04-08T14:01:17;24.15;;;5.00;;
70744;SDS011;59284;31.390;34.904;2023-04-08T14:03:42;22.93;;;4.50;;
70744;SDS011;59284;31.390;34.904;2023-04-08T14:06:08;28.33;;;3.92;;
70744;SDS011;59284;31.390;34.904;2023-04-08T14:08:34;24.67;;;5.27;;
70744;SDS011;59284;31.390;34.904;2023-04-08T14:11:00;29.25;;;4.50;;
70744;SDS011;59284;31.390;34.904;2023-04-08T14:13:25;26.13;;;3.53;;
70744;SDS011;59284;31.390;34.904;2023-04-08T14:15:52;28.23;;;3.73;;
70744;SDS011;59284;31.390;34.904;2023-04-08T14:18:19;23.02;;;3.30;;
70744;SDS011;59284;31.390;34.904;2023-04-08T14:20:44;21.50;;;3.95;;
70744;SDS011;59284;31.390;34.904;2023-04-08T14:23:10;27.07;;;3.33;;
70744;SDS011;59284;31.390;34.904;2023-04-08T14:25:37;24.20;;;3.33;;
70744;SDS011;59284;31.390;34.904;2023-04-08T14:28:03;22.42;;;3.88;;
70744;SDS011;59284;31.390;34.904;2023-04-08T14:30:29;27.07;;;4.33;;
70744;SDS011;59284;31.390;34.904;2023-04-08T14:32:55;24.93;;;3.40;;
70744;SDS011;59284;31.390;34.904;2023-04-08T14:35:23;27.55;;;5.35;;